Fenwick Island, Delaware
Current Conditions -  °F | °C
As of 10:53 AM on Friday 28 Nov 2014 (Local Time) from KOXB Reporting Station
Clear Clear  
Wind Chill: 31°   Ceiling: Unl
Heat Index: 40°   Visibility: 10mi
Dew Point: 23°   Wind: 17mph
Humidity: 51%   Direction: 340°NNW
Pressure: 30.25"   Gusts: 25mph
Location:  38.46°N, 75.05°W
Report Text: KOXB 281553Z AUTO 34015G22KT 10SM CLR 04/M05 A3025 RMK AO2 SLP244 T00441050 TSNO PNO $
Loading
Personal Weather Stations






























Interactive Weather Map New forecast layout! Learn more

10-Day Weather Forecast

Advertisements
Track Severe Weather on mobile